sensor_id;sensor_type;location;lat;lon;timestamp;P1;durP1;ratioP1;P2;durP2;ratioP2
70505;SDS011;58032;49.820;6.274;2024-01-27T00:00:51;3.85;;;0.52;;
70505;SDS011;58032;49.820;6.274;2024-01-27T00:03:19;4.40;;;0.40;;
70505;SDS011;58032;49.820;6.274;2024-01-27T00:05:45;5.60;;;0.50;;
70505;SDS011;58032;49.820;6.274;2024-01-27T00:08:13;3.47;;;0.40;;
70505;SDS011;58032;49.820;6.274;2024-01-27T00:10:39;7.07;;;0.70;;
70505;SDS011;58032;49.820;6.274;2024-01-27T00:13:06;4.10;;;0.52;;
70505;SDS011;58032;49.820;6.274;2024-01-27T00:15:33;3.55;;;0.60;;
70505;SDS011;58032;49.820;6.274;2024-01-27T00:18:00;4.32;;;0.63;;
70505;SDS011;58032;49.820;6.274;2024-01-27T00:20:27;5.07;;;0.60;;
70505;SDS011;58032;49.820;6.274;2024-01-27T00:22:54;9.02;;;0.90;;
70505;SDS011;58032;49.820;6.274;2024-01-27T00:25:21;6.95;;;1.45;;
70505;SDS011;58032;49.820;6.274;2024-01-27T00:27:48;6.07;;;0.88;;
70505;SDS011;58032;49.820;6.274;2024-01-27T00:30:15;4.60;;;0.63;;
70505;SDS011;58032;49.820;6.274;2024-01-27T00:32:43;5.50;;;0.70;;
70505;SDS011;58032;49.820;6.274;2024-01-27T00:35:09;6.47;;;0.95;;
70505;SDS011;58032;49.820;6.274;2024-01-27T00:37:37;8.23;;;1.00;;
70505;SDS011;58032;49.820;6.274;2024-01-27T00:40:06;4.97;;;0.77;;
70505;SDS011;58032;49.820;6.274;2024-01-27T00:42:35;7.90;;;0.82;;
70505;SDS011;58032;49.820;6.274;2024-01-27T00:45:03;7.13;;;1.10;;
70505;SDS011;58032;49.820;6.274;2024-01-27T00:47:31;11.55;;;1.00;;
70505;SDS011;58032;49.820;6.274;2024-01-27T00:49:58;7.90;;;1.40;;
70505;SDS011;58032;49.820;6.274;2024-01-27T00:52:25;5.82;;;1.05;;
70505;SDS011;58032;49.820;6.274;2024-01-27T00:54:53;4.68;;;1.00;;
70505;SDS011;58032;49.820;6.274;2024-01-27T00:57:20;4.53;;;0.77;;
70505;SDS011;58032;49.820;6.274;2024-01-27T00:59:46;11.80;;;1.10;;
70505;SDS011;58032;49.820;6.274;2024-01-27T01:02:13;4.00;;;1.00;;
70505;SDS011;58032;49.820;6.274;2024-01-27T01:04:40;7.47;;;1.00;;
70505;SDS011;58032;49.820;6.274;2024-01-27T01:07:08;8.80;;;1.33;;
70505;SDS011;58032;49.820;6.274;2024-01-27T01:09:36;4.07;;;1.17;;
70505;SDS011;58032;49.820;6.274;2024-01-27T01:12:03;4.65;;;1.10;;
70505;SDS011;58032;49.820;6.274;2024-01-27T01:14:30;6.97;;;1.10;;
70505;SDS011;58032;49.820;6.274;2024-01-27T01:16:57;5.30;;;0.73;;
70505;SDS011;58032;49.820;6.274;2024-01-27T01:19:24;6.93;;;1.08;;
70505;SDS011;58032;49.820;6.274;2024-01-27T01:21:53;8.37;;;0.80;;
70505;SDS011;58032;49.820;6.274;2024-01-27T01:24:20;10.60;;;1.17;;
70505;SDS011;58032;49.820;6.274;2024-01-27T01:26:47;5.70;;;1.05;;
70505;SDS011;58032;49.820;6.274;2024-01-27T01:29:14;5.43;;;1.00;;
70505;SDS011;58032;49.820;6.274;2024-01-27T01:31:41;6.07;;;0.75;;
70505;SDS011;58032;49.820;6.274;2024-01-27T01:34:09;5.63;;;0.63;;
70505;SDS011;58032;49.820;6.274;2024-01-27T01:36:36;5.20;;;0.75;;
70505;SDS011;58032;49.820;6.274;2024-01-27T01:39:04;7.18;;;1.00;;
70505;SDS011;58032;49.820;6.274;2024-01-27T01:41:31;3.97;;;1.02;;
70505;SDS011;58032;49.820;6.274;2024-01-27T01:43:58;8.10;;;0.82;;
70505;SDS011;58032;49.820;6.274;2024-01-27T01:46:26;10.77;;;1.40;;
70505;SDS011;58032;49.820;6.274;2024-01-27T01:48:53;6.43;;;0.88;;
70505;SDS011;58032;49.820;6.274;2024-01-27T01:51:20;5.20;;;1.02;;
70505;SDS011;58032;49.820;6.274;2024-01-27T01:53:48;8.48;;;1.02;;
70505;SDS011;58032;49.820;6.274;2024-01-27T01:56:16;4.72;;;0.50;;
70505;SDS011;58032;49.820;6.274;2024-01-27T01:58:44;3.00;;;0.50;;
70505;SDS011;58032;49.820;6.274;2024-01-27T02:01:11;3.25;;;0.60;;
70505;SDS011;58032;49.820;6.274;2024-01-27T02:03:38;8.70;;;0.85;;
70505;SDS011;58032;49.820;6.274;2024-01-27T02:06:05;6.18;;;0.73;;
70505;SDS011;58032;49.820;6.274;2024-01-27T02:08:32;11.18;;;0.85;;
70505;SDS011;58032;49.820;6.274;2024-01-27T02:10:59;5.80;;;0.63;;
70505;SDS011;58032;49.820;6.274;2024-01-27T02:13:29;3.20;;;0.47;;
70505;SDS011;58032;49.820;6.274;2024-01-27T02:15:56;4.78;;;0.90;;
70505;SDS011;58032;49.820;6.274;2024-01-27T02:18:23;7.57;;;0.90;;
70505;SDS011;58032;49.820;6.274;2024-01-27T02:20:50;5.63;;;0.77;;
70505;SDS011;58032;49.820;6.274;2024-01-27T02:23:17;6.73;;;1.00;;
70505;SDS011;58032;49.820;6.274;2024-01-27T02:25:44;4.22;;;0.75;;
70505;SDS011;58032;49.820;6.274;2024-01-27T02:28:11;6.45;;;0.68;;
70505;SDS011;58032;49.820;6.274;2024-01-27T02:30:39;4.93;;;1.00;;
70505;SDS011;58032;49.820;6.274;2024-01-27T02:33:06;5.63;;;0.60;;
70505;SDS011;58032;49.820;6.274;2024-01-27T02:35:33;6.60;;;0.90;;
70505;SDS011;58032;49.820;6.274;2024-01-27T02:38:00;11.00;;;1.38;;
70505;SDS011;58032;49.820;6.274;2024-01-27T02:40:27;4.00;;;0.75;;
70505;SDS011;58032;49.820;6.274;2024-01-27T02:42:54;3.70;;;0.68;;
70505;SDS011;58032;49.820;6.274;2024-01-27T02:45:21;4.13;;;0.90;;
70505;SDS011;58032;49.820;6.274;2024-01-27T02:47:48;8.30;;;0.90;;
70505;SDS011;58032;49.820;6.274;2024-01-27T02:50:15;4.35;;;0.65;;
70505;SDS011;58032;49.820;6.274;2024-01-27T02:52:42;5.32;;;0.43;;
70505;SDS011;58032;49.820;6.274;2024-01-27T02:55:09;4.53;;;0.80;;
70505;SDS011;58032;49.820;6.274;2024-01-27T02:57:36;7.80;;;1.02;;
70505;SDS011;58032;49.820;6.274;2024-01-27T03:00:04;4.93;;;0.50;;
70505;SDS011;58032;49.820;6.274;2024-01-27T03:02:31;5.57;;;0.85;;
70505;SDS011;58032;49.820;6.274;2024-01-27T03:04:59;5.97;;;0.63;;
70505;SDS011;58032;49.820;6.274;2024-01-27T03:07:26;7.30;;;1.00;;
70505;SDS011;58032;49.820;6.274;2024-01-27T03:09:53;7.65;;;0.90;;
70505;SDS011;58032;49.820;6.274;2024-01-27T03:12:20;5.97;;;0.70;;
70505;SDS011;58032;49.820;6.274;2024-01-27T03:14:49;7.93;;;0.70;;
70505;SDS011;58032;49.820;6.274;2024-01-27T03:17:17;4.72;;;0.80;;
70505;SDS011;58032;49.820;6.274;2024-01-27T03:19:44;6.13;;;0.93;;
70505;SDS011;58032;49.820;6.274;2024-01-27T03:22:13;5.53;;;1.45;;
70505;SDS011;58032;49.820;6.274;2024-01-27T03:24:40;8.27;;;1.20;;
70505;SDS011;58032;49.820;6.274;2024-01-27T03:27:08;6.68;;;1.20;;
70505;SDS011;58032;49.820;6.274;2024-01-27T03:29:35;6.57;;;1.33;;
70505;SDS011;58032;49.820;6.274;2024-01-27T03:32:02;5.05;;;0.80;;
70505;SDS011;58032;49.820;6.274;2024-01-27T03:34:29;6.20;;;1.10;;
70505;SDS011;58032;49.820;6.274;2024-01-27T03:36:56;4.07;;;0.87;;
70505;SDS011;58032;49.820;6.274;2024-01-27T03:39:23;6.40;;;1.02;;
70505;SDS011;58032;49.820;6.274;2024-01-27T03:41:50;5.95;;;0.88;;
70505;SDS011;58032;49.820;6.274;2024-01-27T03:44:17;4.03;;;0.57;;
70505;SDS011;58032;49.820;6.274;2024-01-27T03:46:44;4.75;;;0.85;;
70505;SDS011;58032;49.820;6.274;2024-01-27T03:49:11;3.70;;;0.53;;
70505;SDS011;58032;49.820;6.274;2024-01-27T03:51:38;3.67;;;0.50;;
70505;SDS011;58032;49.820;6.274;2024-01-27T03:54:05;2.47;;;0.38;;
70505;SDS011;58032;49.820;6.274;2024-01-27T03:56:33;5.00;;;0.65;;
70505;SDS011;58032;49.820;6.274;2024-01-27T03:58:59;2.92;;;0.65;;
70505;SDS011;58032;49.820;6.274;2024-01-27T04:01:26;7.63;;;0.87;;
70505;SDS011;58032;49.820;6.274;2024-01-27T04:03:53;2.97;;;0.57;;
70505;SDS011;58032;49.820;6.274;2024-01-27T04:06:20;8.73;;;0.93;;
70505;SDS011;58032;49.820;6.274;2024-01-27T04:08:47;3.25;;;0.60;;
70505;SDS011;58032;49.820;6.274;2024-01-27T04:11:21;4.22;;;0.90;;
70505;SDS011;58032;49.820;6.274;2024-01-27T04:13:49;3.33;;;0.83;;
70505;SDS011;58032;49.820;6.274;2024-01-27T04:16:18;7.60;;;1.10;;
70505;SDS011;58032;49.820;6.274;2024-01-27T04:18:46;3.33;;;0.73;;
70505;SDS011;58032;49.820;6.274;2024-01-27T04:21:13;5.70;;;0.73;;
70505;SDS011;58032;49.820;6.274;2024-01-27T04:23:40;8.50;;;1.17;;
70505;SDS011;58032;49.820;6.274;2024-01-27T04:26:07;4.43;;;0.83;;
70505;SDS011;58032;49.820;6.274;2024-01-27T04:28:36;4.88;;;0.88;;
70505;SDS011;58032;49.820;6.274;2024-01-27T04:31:03;8.50;;;0.75;;
70505;SDS011;58032;49.820;6.274;2024-01-27T04:33:30;9.68;;;0.80;;
70505;SDS011;58032;49.820;6.274;2024-01-27T04:35:58;11.27;;;1.15;;
70505;SDS011;58032;49.820;6.274;2024-01-27T04:38:25;11.07;;;1.00;;
70505;SDS011;58032;49.820;6.274;2024-01-27T04:40:52;7.75;;;0.82;;
70505;SDS011;58032;49.820;6.274;2024-01-27T04:43:19;4.18;;;0.60;;
70505;SDS011;58032;49.820;6.274;2024-01-27T04:45:48;3.60;;;0.55;;
70505;SDS011;58032;49.820;6.274;2024-01-27T04:48:16;4.53;;;0.70;;
70505;SDS011;58032;49.820;6.274;2024-01-27T04:50:44;4.37;;;0.73;;
70505;SDS011;58032;49.820;6.274;2024-01-27T04:53:11;7.80;;;0.77;;
70505;SDS011;58032;49.820;6.274;2024-01-27T04:55:38;3.75;;;0.70;;
70505;SDS011;58032;49.820;6.274;2024-01-27T04:58:06;4.30;;;1.17;;
70505;SDS011;58032;49.820;6.274;2024-01-27T05:00:33;6.57;;;0.85;;
70505;SDS011;58032;49.820;6.274;2024-01-27T05:03:00;5.07;;;0.90;;
70505;SDS011;58032;49.820;6.274;2024-01-27T05:05:30;3.67;;;0.60;;
70505;SDS011;58032;49.820;6.274;2024-01-27T05:07:59;5.40;;;0.80;;
70505;SDS011;58032;49.820;6.274;2024-01-27T05:10:26;5.25;;;0.60;;
70505;SDS011;58032;49.820;6.274;2024-01-27T05:12:53;6.35;;;1.05;;
70505;SDS011;58032;49.820;6.274;2024-01-27T05:15:22;6.93;;;0.90;;
70505;SDS011;58032;49.820;6.274;2024-01-27T05:17:49;7.15;;;0.77;;
70505;SDS011;58032;49.820;6.274;2024-01-27T05:20:17;10.98;;;1.20;;
70505;SDS011;58032;49.820;6.274;2024-01-27T05:22:44;6.72;;;0.80;;
70505;SDS011;58032;49.820;6.274;2024-01-27T05:25:11;7.25;;;0.82;;
70505;SDS011;58032;49.820;6.274;2024-01-27T05:27:38;7.10;;;0.97;;
70505;SDS011;58032;49.820;6.274;2024-01-27T05:30:06;5.88;;;1.00;;
70505;SDS011;58032;49.820;6.274;2024-01-27T05:32:33;7.32;;;1.05;;
70505;SDS011;58032;49.820;6.274;2024-01-27T05:35:00;6.00;;;0.85;;
70505;SDS011;58032;49.820;6.274;2024-01-27T05:37:27;8.30;;;0.70;;
70505;SDS011;58032;49.820;6.274;2024-01-27T05:39:54;6.57;;;0.57;;
70505;SDS011;58032;49.820;6.274;2024-01-27T05:42:21;5.68;;;0.90;;
70505;SDS011;58032;49.820;6.274;2024-01-27T05:44:48;3.38;;;0.50;;
70505;SDS011;58032;49.820;6.274;2024-01-27T05:47:15;3.92;;;0.57;;
70505;SDS011;58032;49.820;6.274;2024-01-27T05:49:42;5.43;;;0.93;;
70505;SDS011;58032;49.820;6.274;2024-01-27T05:52:09;3.43;;;0.43;;
70505;SDS011;58032;49.820;6.274;2024-01-27T05:54:36;5.32;;;0.70;;
70505;SDS011;58032;49.820;6.274;2024-01-27T05:57:03;6.72;;;0.68;;
70505;SDS011;58032;49.820;6.274;2024-01-27T05:59:30;8.02;;;0.88;;
70505;SDS011;58032;49.820;6.274;2024-01-27T06:01:57;5.82;;;0.90;;
70505;SDS011;58032;49.820;6.274;2024-01-27T06:04:24;4.07;;;0.70;;
70505;SDS011;58032;49.820;6.274;2024-01-27T06:06:51;2.70;;;0.52;;
70505;SDS011;58032;49.820;6.274;2024-01-27T06:09:19;5.50;;;0.82;;
70505;SDS011;58032;49.820;6.274;2024-01-27T06:11:46;3.83;;;0.75;;
70505;SDS011;58032;49.820;6.274;2024-01-27T06:14:13;13.32;;;1.35;;
70505;SDS011;58032;49.820;6.274;2024-01-27T06:16:40;5.67;;;1.27;;
70505;SDS011;58032;49.820;6.274;2024-01-27T06:19:07;8.65;;;1.95;;
70505;SDS011;58032;49.820;6.274;2024-01-27T06:21:36;6.70;;;2.10;;
70505;SDS011;58032;49.820;6.274;2024-01-27T06:24:03;5.60;;;1.40;;
70505;SDS011;58032;49.820;6.274;2024-01-27T06:26:30;8.18;;;1.33;;
70505;SDS011;58032;49.820;6.274;2024-01-27T06:28:57;11.63;;;4.53;;
70505;SDS011;58032;49.820;6.274;2024-01-27T06:31:24;6.57;;;2.67;;
70505;SDS011;58032;49.820;6.274;2024-01-27T06:33:50;7.75;;;1.73;;
70505;SDS011;58032;49.820;6.274;2024-01-27T06:36:18;7.32;;;2.08;;
70505;SDS011;58032;49.820;6.274;2024-01-27T06:38:45;7.45;;;1.60;;
70505;SDS011;58032;49.820;6.274;2024-01-27T06:41:11;6.50;;;1.70;;
70505;SDS011;58032;49.820;6.274;2024-01-27T06:43:39;9.73;;;1.70;;
70505;SDS011;58032;49.820;6.274;2024-01-27T06:46:05;5.53;;;1.17;;
70505;SDS011;58032;49.820;6.274;2024-01-27T06:48:32;3.72;;;0.90;;
70505;SDS011;58032;49.820;6.274;2024-01-27T06:50:59;3.88;;;0.70;;
70505;SDS011;58032;49.820;6.274;2024-01-27T06:53:26;4.23;;;0.80;;
70505;SDS011;58032;49.820;6.274;2024-01-27T06:55:53;4.40;;;0.90;;
70505;SDS011;58032;49.820;6.274;2024-01-27T06:58:20;6.72;;;0.70;;
70505;SDS011;58032;49.820;6.274;2024-01-27T07:00:48;10.38;;;0.95;;
70505;SDS011;58032;49.820;6.274;2024-01-27T07:03:15;5.07;;;0.77;;
70505;SDS011;58032;49.820;6.274;2024-01-27T07:05:42;2.97;;;0.60;;
70505;SDS011;58032;49.820;6.274;2024-01-27T07:08:09;8.85;;;1.08;;
70505;SDS011;58032;49.820;6.274;2024-01-27T07:10:36;5.75;;;0.82;;
70505;SDS011;58032;49.820;6.274;2024-01-27T07:13:05;3.10;;;0.50;;
70505;SDS011;58032;49.820;6.274;2024-01-27T07:15:33;5.78;;;0.60;;
70505;SDS011;58032;49.820;6.274;2024-01-27T07:18:00;4.50;;;1.00;;
70505;SDS011;58032;49.820;6.274;2024-01-27T07:20:27;5.10;;;0.80;;
70505;SDS011;58032;49.820;6.274;2024-01-27T07:22:55;6.07;;;1.13;;
70505;SDS011;58032;49.820;6.274;2024-01-27T07:25:22;7.20;;;1.15;;
70505;SDS011;58032;49.820;6.274;2024-01-27T07:27:49;6.25;;;1.00;;
70505;SDS011;58032;49.820;6.274;2024-01-27T07:30:16;4.70;;;0.90;;
70505;SDS011;58032;49.820;6.274;2024-01-27T07:32:43;5.53;;;0.80;;
70505;SDS011;58032;49.820;6.274;2024-01-27T07:35:11;11.32;;;1.38;;
70505;SDS011;58032;49.820;6.274;2024-01-27T07:37:38;4.95;;;1.00;;
70505;SDS011;58032;49.820;6.274;2024-01-27T07:40:05;6.10;;;0.75;;
70505;SDS011;58032;49.820;6.274;2024-01-27T07:42:32;4.70;;;0.80;;
70505;SDS011;58032;49.820;6.274;2024-01-27T07:44:59;4.68;;;0.80;;
70505;SDS011;58032;49.820;6.274;2024-01-27T07:47:26;3.80;;;0.93;;
70505;SDS011;58032;49.820;6.274;2024-01-27T07:49:53;3.30;;;0.80;;
70505;SDS011;58032;49.820;6.274;2024-01-27T07:52:20;7.70;;;0.70;;
70505;SDS011;58032;49.820;6.274;2024-01-27T07:54:47;3.43;;;0.60;;
70505;SDS011;58032;49.820;6.274;2024-01-27T07:57:14;7.20;;;1.50;;
70505;SDS011;58032;49.820;6.274;2024-01-27T07:59:42;5.38;;;1.10;;
70505;SDS011;58032;49.820;6.274;2024-01-27T08:02:08;4.18;;;1.00;;
70505;SDS011;58032;49.820;6.274;2024-01-27T08:04:37;4.97;;;0.88;;
70505;SDS011;58032;49.820;6.274;2024-01-27T08:07:04;5.50;;;1.10;;
70505;SDS011;58032;49.820;6.274;2024-01-27T08:09:36;6.47;;;0.90;;
70505;SDS011;58032;49.820;6.274;2024-01-27T08:12:04;3.45;;;0.77;;
70505;SDS011;58032;49.820;6.274;2024-01-27T08:14:32;4.57;;;1.05;;
70505;SDS011;58032;49.820;6.274;2024-01-27T08:17:02;6.65;;;0.93;;
70505;SDS011;58032;49.820;6.274;2024-01-27T08:19:32;10.27;;;1.93;;
70505;SDS011;58032;49.820;6.274;2024-01-27T08:21:59;8.20;;;1.95;;
70505;SDS011;58032;49.820;6.274;2024-01-27T08:24:26;6.07;;;1.85;;
70505;SDS011;58032;49.820;6.274;2024-01-27T08:26:54;9.13;;;1.88;;
70505;SDS011;58032;49.820;6.274;2024-01-27T08:29:21;6.40;;;1.48;;
70505;SDS011;58032;49.820;6.274;2024-01-27T08:31:48;7.03;;;1.50;;
70505;SDS011;58032;49.820;6.274;2024-01-27T08:34:15;6.45;;;1.60;;
70505;SDS011;58032;49.820;6.274;2024-01-27T08:36:42;5.95;;;1.88;;
70505;SDS011;58032;49.820;6.274;2024-01-27T08:39:09;13.82;;;2.20;;
70505;SDS011;58032;49.820;6.274;2024-01-27T08:41:38;8.10;;;2.50;;
70505;SDS011;58032;49.820;6.274;2024-01-27T08:44:05;6.57;;;1.27;;
70505;SDS011;58032;49.820;6.274;2024-01-27T08:46:32;7.53;;;2.28;;
70505;SDS011;58032;49.820;6.274;2024-01-27T08:48:59;10.57;;;1.50;;
70505;SDS011;58032;49.820;6.274;2024-01-27T08:51:26;4.70;;;1.10;;
70505;SDS011;58032;49.820;6.274;2024-01-27T08:53:54;5.60;;;1.35;;
70505;SDS011;58032;49.820;6.274;2024-01-27T08:56:21;8.80;;;2.00;;
70505;SDS011;58032;49.820;6.274;2024-01-27T08:58:47;5.93;;;1.30;;
70505;SDS011;58032;49.820;6.274;2024-01-27T09:01:18;8.25;;;1.80;;
70505;SDS011;58032;49.820;6.274;2024-01-27T09:03:45;9.35;;;1.20;;
70505;SDS011;58032;49.820;6.274;2024-01-27T09:06:12;6.22;;;1.50;;
70505;SDS011;58032;49.820;6.274;2024-01-27T09:08:40;5.70;;;1.20;;
70505;SDS011;58032;49.820;6.274;2024-01-27T09:11:07;8.60;;;1.42;;
70505;SDS011;58032;49.820;6.274;2024-01-27T09:13:35;4.70;;;1.20;;
70505;SDS011;58032;49.820;6.274;2024-01-27T09:16:02;5.10;;;1.80;;
70505;SDS011;58032;49.820;6.274;2024-01-27T09:18:30;5.00;;;1.55;;
70505;SDS011;58032;49.820;6.274;2024-01-27T09:20:57;4.60;;;1.70;;
70505;SDS011;58032;49.820;6.274;2024-01-27T09:23:23;10.32;;;3.92;;
70505;SDS011;58032;49.820;6.274;2024-01-27T09:25:50;10.68;;;4.55;;
70505;SDS011;58032;49.820;6.274;2024-01-27T09:28:18;11.45;;;4.00;;
70505;SDS011;58032;49.820;6.274;2024-01-27T09:30:44;11.73;;;4.20;;
70505;SDS011;58032;49.820;6.274;2024-01-27T09:33:12;9.30;;;4.07;;
70505;SDS011;58032;49.820;6.274;2024-01-27T09:35:39;14.30;;;3.90;;
70505;SDS011;58032;49.820;6.274;2024-01-27T09:38:06;13.32;;;4.68;;
70505;SDS011;58032;49.820;6.274;2024-01-27T09:40:39;9.80;;;4.20;;
70505;SDS011;58032;49.820;6.274;2024-01-27T09:43:06;11.70;;;4.93;;
70505;SDS011;58032;49.820;6.274;2024-01-27T09:45:38;9.07;;;3.40;;
70505;SDS011;58032;49.820;6.274;2024-01-27T09:48:06;9.63;;;3.40;;
70505;SDS011;58032;49.820;6.274;2024-01-27T09:50:37;7.82;;;2.95;;
70505;SDS011;58032;49.820;6.274;2024-01-27T09:53:08;10.93;;;3.60;;
70505;SDS011;58032;49.820;6.274;2024-01-27T09:55:36;9.20;;;2.95;;
70505;SDS011;58032;49.820;6.274;2024-01-27T09:58:03;11.60;;;2.30;;
70505;SDS011;58032;49.820;6.274;2024-01-27T10:00:33;6.70;;;1.98;;
70505;SDS011;58032;49.820;6.274;2024-01-27T10:03:03;9.02;;;1.95;;
70505;SDS011;58032;49.820;6.274;2024-01-27T10:05:32;8.88;;;2.65;;
70505;SDS011;58032;49.820;6.274;2024-01-27T10:08:00;7.68;;;2.03;;
70505;SDS011;58032;49.820;6.274;2024-01-27T10:10:27;5.07;;;1.77;;
70505;SDS011;58032;49.820;6.274;2024-01-27T10:12:54;6.05;;;1.58;;
70505;SDS011;58032;49.820;6.274;2024-01-27T10:15:25;7.88;;;1.92;;
70505;SDS011;58032;49.820;6.274;2024-01-27T10:18:04;8.43;;;1.63;;
70505;SDS011;58032;49.820;6.274;2024-01-27T10:20:34;5.55;;;1.38;;
70505;SDS011;58032;49.820;6.274;2024-01-27T10:23:11;8.03;;;1.43;;
70505;SDS011;58032;49.820;6.274;2024-01-27T10:25:39;8.43;;;1.15;;
70505;SDS011;58032;49.820;6.274;2024-01-27T10:28:07;9.23;;;1.20;;
70505;SDS011;58032;49.820;6.274;2024-01-27T10:30:35;7.38;;;1.27;;
70505;SDS011;58032;49.820;6.274;2024-01-27T10:33:03;10.55;;;1.50;;
70505;SDS011;58032;49.820;6.274;2024-01-27T10:35:30;10.30;;;1.47;;
70505;SDS011;58032;49.820;6.274;2024-01-27T10:37:57;8.68;;;1.50;;
70505;SDS011;58032;49.820;6.274;2024-01-27T10:40:24;6.72;;;1.40;;
70505;SDS011;58032;49.820;6.274;2024-01-27T10:43:01;8.85;;;2.83;;
70505;SDS011;58032;49.820;6.274;2024-01-27T10:45:36;9.27;;;1.80;;
70505;SDS011;58032;49.820;6.274;2024-01-27T10:48:05;6.57;;;1.37;;
70505;SDS011;58032;49.820;6.274;2024-01-27T10:50:36;7.60;;;2.30;;
70505;SDS011;58032;49.820;6.274;2024-01-27T10:53:09;6.72;;;1.33;;
70505;SDS011;58032;49.820;6.274;2024-01-27T10:55:48;7.32;;;1.63;;
70505;SDS011;58032;49.820;6.274;2024-01-27T10:58:19;10.45;;;1.50;;
70505;SDS011;58032;49.820;6.274;2024-01-27T11:00:50;8.87;;;2.10;;
70505;SDS011;58032;49.820;6.274;2024-01-27T11:03:19;7.97;;;2.00;;
70505;SDS011;58032;49.820;6.274;2024-01-27T11:05:48;7.05;;;2.10;;
70505;SDS011;58032;49.820;6.274;2024-01-27T11:08:16;7.57;;;2.03;;
70505;SDS011;58032;49.820;6.274;2024-01-27T11:10:45;9.88;;;3.70;;
70505;SDS011;58032;49.820;6.274;2024-01-27T11:13:12;11.57;;;2.73;;
70505;SDS011;58032;49.820;6.274;2024-01-27T11:15:50;8.00;;;2.88;;
70505;SDS011;58032;49.820;6.274;2024-01-27T11:18:17;6.85;;;1.80;;
70505;SDS011;58032;49.820;6.274;2024-01-27T11:20:45;7.22;;;1.80;;
70505;SDS011;58032;49.820;6.274;2024-01-27T11:23:13;9.90;;;2.00;;
70505;SDS011;58032;49.820;6.274;2024-01-27T11:25:41;5.77;;;1.80;;
70505;SDS011;58032;49.820;6.274;2024-01-27T11:28:15;10.02;;;1.98;;
70505;SDS011;58032;49.820;6.274;2024-01-27T11:30:46;10.15;;;1.80;;
70505;SDS011;58032;49.820;6.274;2024-01-27T11:33:14;12.13;;;1.25;;
70505;SDS011;58032;49.820;6.274;2024-01-27T11:35:41;8.23;;;1.75;;
70505;SDS011;58032;49.820;6.274;2024-01-27T11:38:08;18.67;;;2.10;;
70505;SDS011;58032;49.820;6.274;2024-01-27T11:40:46;7.13;;;1.08;;
70505;SDS011;58032;49.820;6.274;2024-01-27T11:43:13;5.82;;;1.00;;
70505;SDS011;58032;49.820;6.274;2024-01-27T11:45:40;6.75;;;1.13;;
70505;SDS011;58032;49.820;6.274;2024-01-27T11:48:07;4.45;;;0.70;;
70505;SDS011;58032;49.820;6.274;2024-01-27T11:50:35;5.27;;;1.33;;
70505;SDS011;58032;49.820;6.274;2024-01-27T11:53:04;10.07;;;1.17;;
70505;SDS011;58032;49.820;6.274;2024-01-27T11:55:34;5.32;;;1.00;;
70505;SDS011;58032;49.820;6.274;2024-01-27T11:58:01;6.35;;;1.10;;
70505;SDS011;58032;49.820;6.274;2024-01-27T12:00:27;7.00;;;1.60;;
70505;SDS011;58032;49.820;6.274;2024-01-27T12:02:54;8.03;;;0.90;;
70505;SDS011;58032;49.820;6.274;2024-01-27T12:05:21;7.15;;;1.25;;
70505;SDS011;58032;49.820;6.274;2024-01-27T12:07:49;9.38;;;1.65;;
70505;SDS011;58032;49.820;6.274;2024-01-27T12:10:16;10.40;;;1.10;;
70505;SDS011;58032;49.820;6.274;2024-01-27T12:12:43;7.50;;;1.23;;
70505;SDS011;58032;49.820;6.274;2024-01-27T12:15:11;11.30;;;1.40;;
70505;SDS011;58032;49.820;6.274;2024-01-27T12:17:39;7.43;;;1.00;;
70505;SDS011;58032;49.820;6.274;2024-01-27T12:20:13;7.55;;;1.27;;
70505;SDS011;58032;49.820;6.274;2024-01-27T12:22:41;6.05;;;0.95;;
70505;SDS011;58032;49.820;6.274;2024-01-27T12:25:09;7.20;;;0.88;;
70505;SDS011;58032;49.820;6.274;2024-01-27T12:27:42;10.83;;;1.23;;
70505;SDS011;58032;49.820;6.274;2024-01-27T12:30:11;9.07;;;1.17;;
70505;SDS011;58032;49.820;6.274;2024-01-27T12:32:39;7.55;;;1.00;;
70505;SDS011;58032;49.820;6.274;2024-01-27T12:35:06;9.48;;;1.02;;
70505;SDS011;58032;49.820;6.274;2024-01-27T12:37:35;7.60;;;0.98;;
70505;SDS011;58032;49.820;6.274;2024-01-27T12:40:16;12.80;;;1.43;;
70505;SDS011;58032;49.820;6.274;2024-01-27T12:42:46;9.93;;;1.17;;
70505;SDS011;58032;49.820;6.274;2024-01-27T12:45:14;10.90;;;1.50;;
70505;SDS011;58032;49.820;6.274;2024-01-27T12:47:41;5.93;;;1.02;;
70505;SDS011;58032;49.820;6.274;2024-01-27T12:50:08;6.18;;;1.58;;
70505;SDS011;58032;49.820;6.274;2024-01-27T12:52:36;9.83;;;1.07;;
70505;SDS011;58032;49.820;6.274;2024-01-27T12:55:04;6.57;;;0.82;;
70505;SDS011;58032;49.820;6.274;2024-01-27T12:57:32;6.10;;;1.10;;
70505;SDS011;58032;49.820;6.274;2024-01-27T12:59:59;11.85;;;1.30;;
70505;SDS011;58032;49.820;6.274;2024-01-27T13:02:26;8.10;;;1.40;;
70505;SDS011;58032;49.820;6.274;2024-01-27T13:04:53;9.60;;;1.50;;
70505;SDS011;58032;49.820;6.274;2024-01-27T13:07:20;6.88;;;1.13;;
70505;SDS011;58032;49.820;6.274;2024-01-27T13:09:47;8.30;;;1.10;;
70505;SDS011;58032;49.820;6.274;2024-01-27T13:12:14;5.35;;;0.52;;
70505;SDS011;58032;49.820;6.274;2024-01-27T13:14:41;6.82;;;1.30;;
70505;SDS011;58032;49.820;6.274;2024-01-27T13:17:08;11.40;;;1.20;;
70505;SDS011;58032;49.820;6.274;2024-01-27T13:19:35;6.85;;;0.70;;
70505;SDS011;58032;49.820;6.274;2024-01-27T13:22:02;8.18;;;0.85;;
70505;SDS011;58032;49.820;6.274;2024-01-27T13:24:30;7.28;;;0.88;;
70505;SDS011;58032;49.820;6.274;2024-01-27T13:26:57;3.70;;;0.50;;
70505;SDS011;58032;49.820;6.274;2024-01-27T13:29:24;8.00;;;0.70;;
70505;SDS011;58032;49.820;6.274;2024-01-27T13:31:51;7.10;;;0.88;;
70505;SDS011;58032;49.820;6.274;2024-01-27T13:34:18;6.72;;;0.60;;
70505;SDS011;58032;49.820;6.274;2024-01-27T13:36:45;5.40;;;0.85;;
70505;SDS011;58032;49.820;6.274;2024-01-27T13:39:12;6.55;;;0.85;;
70505;SDS011;58032;49.820;6.274;2024-01-27T13:41:40;3.93;;;0.50;;
70505;SDS011;58032;49.820;6.274;2024-01-27T13:44:07;6.70;;;0.93;;
70505;SDS011;58032;49.820;6.274;2024-01-27T13:46:34;9.60;;;1.35;;
70505;SDS011;58032;49.820;6.274;2024-01-27T13:49:01;9.90;;;1.00;;
70505;SDS011;58032;49.820;6.274;2024-01-27T13:51:28;5.63;;;1.02;;
70505;SDS011;58032;49.820;6.274;2024-01-27T13:53:55;4.63;;;0.70;;
70505;SDS011;58032;49.820;6.274;2024-01-27T13:56:23;7.40;;;1.08;;
70505;SDS011;58032;49.820;6.274;2024-01-27T13:58:52;6.80;;;0.93;;
70505;SDS011;58032;49.820;6.274;2024-01-27T14:01:19;3.63;;;0.50;;
70505;SDS011;58032;49.820;6.274;2024-01-27T14:03:46;6.35;;;1.10;;
70505;SDS011;58032;49.820;6.274;2024-01-27T14:06:13;8.47;;;1.00;;
70505;SDS011;58032;49.820;6.274;2024-01-27T14:08:40;8.73;;;1.65;;
70505;SDS011;58032;49.820;6.274;2024-01-27T14:11:07;7.40;;;1.00;;
70505;SDS011;58032;49.820;6.274;2024-01-27T14:13:35;7.13;;;1.10;;
70505;SDS011;58032;49.820;6.274;2024-01-27T14:16:02;10.02;;;1.35;;
70505;SDS011;58032;49.820;6.274;2024-01-27T14:18:29;5.50;;;0.90;;
70505;SDS011;58032;49.820;6.274;2024-01-27T14:20:58;7.40;;;1.20;;
70505;SDS011;58032;49.820;6.274;2024-01-27T14:23:25;4.70;;;1.13;;
70505;SDS011;58032;49.820;6.274;2024-01-27T14:25:52;7.78;;;1.42;;
70505;SDS011;58032;49.820;6.274;2024-01-27T14:28:18;9.48;;;1.42;;
70505;SDS011;58032;49.820;6.274;2024-01-27T14:30:46;11.73;;;1.87;;
70505;SDS011;58032;49.820;6.274;2024-01-27T14:33:13;12.75;;;1.58;;
70505;SDS011;58032;49.820;6.274;2024-01-27T14:35:42;14.77;;;1.60;;
70505;SDS011;58032;49.820;6.274;2024-01-27T14:38:09;10.32;;;1.20;;
70505;SDS011;58032;49.820;6.274;2024-01-27T14:40:36;8.82;;;1.10;;
70505;SDS011;58032;49.820;6.274;2024-01-27T14:43:04;10.50;;;1.43;;
70505;SDS011;58032;49.820;6.274;2024-01-27T14:45:38;6.38;;;1.02;;
70505;SDS011;58032;49.820;6.274;2024-01-27T14:48:05;7.07;;;1.45;;